sensor_id;sensor_type;location;lat;lon;timestamp;P1;durP1;ratioP1;P2;durP2;ratioP2
18435;SDS011;9346;52.006;4.720;2022-10-31T00:00:31;5.00;;;2.40;;
18435;SDS011;9346;52.006;4.720;2022-10-31T00:02:58;3.97;;;2.43;;
18435;SDS011;9346;52.006;4.720;2022-10-31T00:05:25;4.63;;;3.10;;
18435;SDS011;9346;52.006;4.720;2022-10-31T00:07:54;3.70;;;2.57;;
18435;SDS011;9346;52.006;4.720;2022-10-31T00:10:21;7.07;;;3.40;;
18435;SDS011;9346;52.006;4.720;2022-10-31T00:12:50;4.37;;;2.80;;
18435;SDS011;9346;52.006;4.720;2022-10-31T00:15:18;3.80;;;3.07;;
18435;SDS011;9346;52.006;4.720;2022-10-31T00:17:45;4.57;;;3.00;;
18435;SDS011;9346;52.006;4.720;2022-10-31T00:20:12;4.97;;;2.77;;
18435;SDS011;9346;52.006;4.720;2022-10-31T00:22:39;3.83;;;2.70;;
18435;SDS011;9346;52.006;4.720;2022-10-31T00:25:09;5.10;;;3.10;;
18435;SDS011;9346;52.006;4.720;2022-10-31T00:27:36;4.60;;;2.00;;
18435;SDS011;9346;52.006;4.720;2022-10-31T00:30:04;4.00;;;2.87;;
18435;SDS011;9346;52.006;4.720;2022-10-31T00:32:32;4.70;;;2.67;;
18435;SDS011;9346;52.006;4.720;2022-10-31T00:34:59;4.77;;;2.63;;
18435;SDS011;9346;52.006;4.720;2022-10-31T00:37:27;3.50;;;2.40;;
18435;SDS011;9346;52.006;4.720;2022-10-31T00:39:53;9.80;;;3.40;;
18435;SDS011;9346;52.006;4.720;2022-10-31T00:42:22;4.27;;;3.07;;
18435;SDS011;9346;52.006;4.720;2022-10-31T00:44:50;5.67;;;3.37;;
18435;SDS011;9346;52.006;4.720;2022-10-31T00:47:17;3.80;;;3.10;;
18435;SDS011;9346;52.006;4.720;2022-10-31T00:49:44;8.07;;;3.30;;
18435;SDS011;9346;52.006;4.720;2022-10-31T00:52:11;4.77;;;3.20;;
18435;SDS011;9346;52.006;4.720;2022-10-31T00:54:38;3.87;;;2.77;;
18435;SDS011;9346;52.006;4.720;2022-10-31T00:57:06;8.00;;;3.80;;
18435;SDS011;9346;52.006;4.720;2022-10-31T00:59:34;5.53;;;3.90;;
18435;SDS011;9346;52.006;4.720;2022-10-31T01:02:02;5.80;;;3.90;;
18435;SDS011;9346;52.006;4.720;2022-10-31T01:04:29;5.00;;;4.07;;
18435;SDS011;9346;52.006;4.720;2022-10-31T01:06:56;6.33;;;3.67;;
18435;SDS011;9346;52.006;4.720;2022-10-31T01:09:23;6.97;;;4.20;;
18435;SDS011;9346;52.006;4.720;2022-10-31T01:11:50;6.10;;;4.57;;
18435;SDS011;9346;52.006;4.720;2022-10-31T01:14:18;9.90;;;5.50;;
18435;SDS011;9346;52.006;4.720;2022-10-31T01:16:47;9.73;;;4.77;;
18435;SDS011;9346;52.006;4.720;2022-10-31T01:19:14;7.07;;;5.23;;
18435;SDS011;9346;52.006;4.720;2022-10-31T01:21:41;7.20;;;5.43;;
18435;SDS011;9346;52.006;4.720;2022-10-31T01:24:08;8.57;;;5.50;;
18435;SDS011;9346;52.006;4.720;2022-10-31T01:26:35;8.17;;;5.87;;
18435;SDS011;9346;52.006;4.720;2022-10-31T01:29:03;7.90;;;5.50;;
18435;SDS011;9346;52.006;4.720;2022-10-31T01:31:34;11.33;;;5.33;;
18435;SDS011;9346;52.006;4.720;2022-10-31T01:34:04;6.73;;;5.07;;
18435;SDS011;9346;52.006;4.720;2022-10-31T01:36:33;9.23;;;6.13;;
18435;SDS011;9346;52.006;4.720;2022-10-31T01:39:02;7.27;;;5.57;;
18435;SDS011;9346;52.006;4.720;2022-10-31T01:41:32;8.43;;;5.83;;
18435;SDS011;9346;52.006;4.720;2022-10-31T01:44:01;9.63;;;6.00;;
18435;SDS011;9346;52.006;4.720;2022-10-31T01:46:31;9.63;;;6.03;;
18435;SDS011;9346;52.006;4.720;2022-10-31T01:49:02;9.33;;;6.60;;
18435;SDS011;9346;52.006;4.720;2022-10-31T01:51:36;10.20;;;6.30;;
18435;SDS011;9346;52.006;4.720;2022-10-31T01:54:09;9.50;;;6.37;;
18435;SDS011;9346;52.006;4.720;2022-10-31T01:56:39;9.50;;;7.07;;
18435;SDS011;9346;52.006;4.720;2022-10-31T01:59:11;12.33;;;7.23;;
18435;SDS011;9346;52.006;4.720;2022-10-31T02:01:43;9.27;;;6.73;;
18435;SDS011;9346;52.006;4.720;2022-10-31T02:04:13;10.73;;;6.67;;
18435;SDS011;9346;52.006;4.720;2022-10-31T02:06:43;12.03;;;8.10;;
18435;SDS011;9346;52.006;4.720;2022-10-31T02:09:15;12.87;;;6.93;;
18435;SDS011;9346;52.006;4.720;2022-10-31T02:11:48;14.43;;;7.77;;
18435;SDS011;9346;52.006;4.720;2022-10-31T02:14:17;9.90;;;7.43;;
18435;SDS011;9346;52.006;4.720;2022-10-31T02:16:44;9.90;;;7.63;;
18435;SDS011;9346;52.006;4.720;2022-10-31T02:19:13;9.70;;;6.63;;
18435;SDS011;9346;52.006;4.720;2022-10-31T02:21:49;11.57;;;7.63;;
18435;SDS011;9346;52.006;4.720;2022-10-31T02:24:37;11.40;;;7.13;;
18435;SDS011;9346;52.006;4.720;2022-10-31T02:27:13;9.60;;;6.70;;
18435;SDS011;9346;52.006;4.720;2022-10-31T02:29:55;10.87;;;7.07;;
18435;SDS011;9346;52.006;4.720;2022-10-31T02:32:36;10.33;;;7.07;;
18435;SDS011;9346;52.006;4.720;2022-10-31T02:35:11;11.37;;;7.03;;
18435;SDS011;9346;52.006;4.720;2022-10-31T02:37:45;12.40;;;7.23;;
18435;SDS011;9346;52.006;4.720;2022-10-31T02:40:17;10.13;;;7.30;;
18435;SDS011;9346;52.006;4.720;2022-10-31T02:42:51;14.60;;;7.63;;
18435;SDS011;9346;52.006;4.720;2022-10-31T02:45:26;11.73;;;7.77;;
18435;SDS011;9346;52.006;4.720;2022-10-31T02:48:03;9.90;;;7.77;;
18435;SDS011;9346;52.006;4.720;2022-10-31T02:50:37;8.57;;;6.83;;
18435;SDS011;9346;52.006;4.720;2022-10-31T02:53:08;10.97;;;6.90;;
18435;SDS011;9346;52.006;4.720;2022-10-31T02:55:47;11.47;;;7.93;;
18435;SDS011;9346;52.006;4.720;2022-10-31T02:58:18;11.30;;;7.03;;
18435;SDS011;9346;52.006;4.720;2022-10-31T03:00:52;10.70;;;7.07;;
18435;SDS011;9346;52.006;4.720;2022-10-31T03:03:33;11.03;;;7.07;;
18435;SDS011;9346;52.006;4.720;2022-10-31T03:06:11;9.33;;;5.77;;
18435;SDS011;9346;52.006;4.720;2022-10-31T03:08:46;7.40;;;5.60;;
18435;SDS011;9346;52.006;4.720;2022-10-31T03:11:20;11.73;;;4.17;;
18435;SDS011;9346;52.006;4.720;2022-10-31T03:13:55;4.03;;;3.53;;
18435;SDS011;9346;52.006;4.720;2022-10-31T03:16:27;3.90;;;3.50;;
18435;SDS011;9346;52.006;4.720;2022-10-31T03:19:03;5.20;;;3.67;;
18435;SDS011;9346;52.006;4.720;2022-10-31T03:21:33;4.40;;;3.40;;
18435;SDS011;9346;52.006;4.720;2022-10-31T03:24:06;3.87;;;3.10;;
18435;SDS011;9346;52.006;4.720;2022-10-31T03:26:37;5.43;;;3.70;;
18435;SDS011;9346;52.006;4.720;2022-10-31T03:29:07;12.63;;;3.47;;
18435;SDS011;9346;52.006;4.720;2022-10-31T03:31:37;6.30;;;4.00;;
18435;SDS011;9346;52.006;4.720;2022-10-31T03:34:11;5.27;;;3.93;;
18435;SDS011;9346;52.006;4.720;2022-10-31T03:36:39;5.03;;;3.60;;
18435;SDS011;9346;52.006;4.720;2022-10-31T03:39:09;6.13;;;4.47;;
18435;SDS011;9346;52.006;4.720;2022-10-31T03:41:41;4.13;;;3.73;;
18435;SDS011;9346;52.006;4.720;2022-10-31T03:44:12;7.23;;;4.67;;
18435;SDS011;9346;52.006;4.720;2022-10-31T03:46:44;6.63;;;4.53;;
18435;SDS011;9346;52.006;4.720;2022-10-31T03:49:13;7.87;;;5.00;;
18435;SDS011;9346;52.006;4.720;2022-10-31T03:51:42;7.67;;;4.20;;
18435;SDS011;9346;52.006;4.720;2022-10-31T03:54:15;6.87;;;4.70;;
18435;SDS011;9346;52.006;4.720;2022-10-31T03:56:50;7.03;;;5.07;;
18435;SDS011;9346;52.006;4.720;2022-10-31T03:59:21;10.20;;;6.10;;
18435;SDS011;9346;52.006;4.720;2022-10-31T04:01:54;6.47;;;5.07;;
18435;SDS011;9346;52.006;4.720;2022-10-31T04:04:28;9.70;;;6.30;;
18435;SDS011;9346;52.006;4.720;2022-10-31T04:06:56;11.67;;;7.73;;
18435;SDS011;9346;52.006;4.720;2022-10-31T04:09:27;8.67;;;6.70;;
18435;SDS011;9346;52.006;4.720;2022-10-31T04:11:59;11.30;;;6.90;;
18435;SDS011;9346;52.006;4.720;2022-10-31T04:14:28;9.93;;;7.17;;
18435;SDS011;9346;52.006;4.720;2022-10-31T04:16:57;13.73;;;7.33;;
18435;SDS011;9346;52.006;4.720;2022-10-31T04:19:25;10.07;;;7.37;;
18435;SDS011;9346;52.006;4.720;2022-10-31T04:21:55;10.57;;;7.00;;
18435;SDS011;9346;52.006;4.720;2022-10-31T04:24:22;12.00;;;7.67;;
18435;SDS011;9346;52.006;4.720;2022-10-31T04:26:50;12.00;;;8.20;;
18435;SDS011;9346;52.006;4.720;2022-10-31T04:29:17;12.13;;;8.30;;
18435;SDS011;9346;52.006;4.720;2022-10-31T04:31:44;13.13;;;8.33;;
18435;SDS011;9346;52.006;4.720;2022-10-31T04:34:11;15.17;;;7.97;;
18435;SDS011;9346;52.006;4.720;2022-10-31T04:36:40;12.13;;;7.77;;
18435;SDS011;9346;52.006;4.720;2022-10-31T04:39:07;11.40;;;7.70;;
18435;SDS011;9346;52.006;4.720;2022-10-31T04:41:34;11.60;;;7.17;;
18435;SDS011;9346;52.006;4.720;2022-10-31T04:44:01;12.97;;;7.93;;
18435;SDS011;9346;52.006;4.720;2022-10-31T04:46:28;13.17;;;7.67;;
18435;SDS011;9346;52.006;4.720;2022-10-31T04:48:55;13.33;;;8.20;;
18435;SDS011;9346;52.006;4.720;2022-10-31T04:51:23;15.50;;;7.63;;
18435;SDS011;9346;52.006;4.720;2022-10-31T04:53:51;20.40;;;9.40;;
18435;SDS011;9346;52.006;4.720;2022-10-31T04:56:19;17.37;;;9.80;;
18435;SDS011;9346;52.006;4.720;2022-10-31T04:58:45;14.90;;;9.00;;
18435;SDS011;9346;52.006;4.720;2022-10-31T05:01:12;20.40;;;9.80;;
18435;SDS011;9346;52.006;4.720;2022-10-31T05:03:39;17.40;;;9.23;;
18435;SDS011;9346;52.006;4.720;2022-10-31T05:06:06;12.70;;;8.53;;
18435;SDS011;9346;52.006;4.720;2022-10-31T05:08:34;17.07;;;9.40;;
18435;SDS011;9346;52.006;4.720;2022-10-31T05:11:03;14.23;;;7.93;;
18435;SDS011;9346;52.006;4.720;2022-10-31T05:13:33;12.47;;;8.43;;
18435;SDS011;9346;52.006;4.720;2022-10-31T05:16:00;13.00;;;8.30;;
18435;SDS011;9346;52.006;4.720;2022-10-31T05:18:28;13.00;;;7.63;;
18435;SDS011;9346;52.006;4.720;2022-10-31T05:20:55;11.60;;;8.80;;
18435;SDS011;9346;52.006;4.720;2022-10-31T05:23:23;13.07;;;8.10;;
18435;SDS011;9346;52.006;4.720;2022-10-31T05:25:50;12.13;;;8.57;;
18435;SDS011;9346;52.006;4.720;2022-10-31T05:28:18;16.13;;;8.47;;
18435;SDS011;9346;52.006;4.720;2022-10-31T05:30:45;14.03;;;8.70;;
18435;SDS011;9346;52.006;4.720;2022-10-31T05:33:12;20.10;;;9.30;;
18435;SDS011;9346;52.006;4.720;2022-10-31T05:35:39;22.30;;;10.30;;
18435;SDS011;9346;52.006;4.720;2022-10-31T05:38:08;17.53;;;9.30;;
18435;SDS011;9346;52.006;4.720;2022-10-31T05:40:35;19.73;;;10.00;;
18435;SDS011;9346;52.006;4.720;2022-10-31T05:43:02;18.03;;;9.53;;
18435;SDS011;9346;52.006;4.720;2022-10-31T05:45:31;17.03;;;9.93;;
18435;SDS011;9346;52.006;4.720;2022-10-31T05:47:59;19.97;;;9.80;;
18435;SDS011;9346;52.006;4.720;2022-10-31T05:50:28;16.07;;;8.93;;
18435;SDS011;9346;52.006;4.720;2022-10-31T05:52:57;17.67;;;11.03;;
18435;SDS011;9346;52.006;4.720;2022-10-31T05:55:25;15.20;;;9.40;;
18435;SDS011;9346;52.006;4.720;2022-10-31T05:57:53;16.43;;;10.20;;
18435;SDS011;9346;52.006;4.720;2022-10-31T06:00:21;21.97;;;10.80;;
18435;SDS011;9346;52.006;4.720;2022-10-31T06:02:53;25.10;;;11.67;;
18435;SDS011;9346;52.006;4.720;2022-10-31T06:05:24;20.60;;;11.13;;
18435;SDS011;9346;52.006;4.720;2022-10-31T06:07:52;23.67;;;11.37;;
18435;SDS011;9346;52.006;4.720;2022-10-31T06:10:19;23.43;;;12.23;;
18435;SDS011;9346;52.006;4.720;2022-10-31T06:12:46;19.77;;;11.00;;
18435;SDS011;9346;52.006;4.720;2022-10-31T06:15:13;21.47;;;11.03;;
18435;SDS011;9346;52.006;4.720;2022-10-31T06:17:40;21.93;;;11.10;;
18435;SDS011;9346;52.006;4.720;2022-10-31T06:20:09;17.33;;;11.20;;
18435;SDS011;9346;52.006;4.720;2022-10-31T06:22:37;18.03;;;10.70;;
18435;SDS011;9346;52.006;4.720;2022-10-31T06:25:05;15.43;;;9.43;;
18435;SDS011;9346;52.006;4.720;2022-10-31T06:27:33;16.63;;;9.47;;
18435;SDS011;9346;52.006;4.720;2022-10-31T06:30:00;16.87;;;8.93;;
18435;SDS011;9346;52.006;4.720;2022-10-31T06:32:26;13.77;;;9.67;;
18435;SDS011;9346;52.006;4.720;2022-10-31T06:34:54;16.43;;;10.27;;
18435;SDS011;9346;52.006;4.720;2022-10-31T06:37:23;15.53;;;9.07;;
18435;SDS011;9346;52.006;4.720;2022-10-31T06:39:49;13.40;;;9.20;;
18435;SDS011;9346;52.006;4.720;2022-10-31T06:42:16;13.80;;;8.43;;
18435;SDS011;9346;52.006;4.720;2022-10-31T06:44:44;12.87;;;8.90;;
18435;SDS011;9346;52.006;4.720;2022-10-31T06:47:10;14.50;;;8.03;;
18435;SDS011;9346;52.006;4.720;2022-10-31T06:49:38;13.20;;;8.60;;
18435;SDS011;9346;52.006;4.720;2022-10-31T06:52:05;14.20;;;8.50;;
18435;SDS011;9346;52.006;4.720;2022-10-31T06:54:34;14.80;;;9.10;;
18435;SDS011;9346;52.006;4.720;2022-10-31T06:57:01;14.93;;;8.90;;
18435;SDS011;9346;52.006;4.720;2022-10-31T06:59:28;13.93;;;9.10;;
18435;SDS011;9346;52.006;4.720;2022-10-31T07:01:57;18.93;;;8.33;;
18435;SDS011;9346;52.006;4.720;2022-10-31T07:04:24;16.23;;;9.23;;
18435;SDS011;9346;52.006;4.720;2022-10-31T07:06:51;26.90;;;8.93;;
18435;SDS011;9346;52.006;4.720;2022-10-31T07:09:21;16.07;;;9.13;;
18435;SDS011;9346;52.006;4.720;2022-10-31T07:11:51;13.20;;;8.33;;
18435;SDS011;9346;52.006;4.720;2022-10-31T07:14:18;14.23;;;8.20;;
18435;SDS011;9346;52.006;4.720;2022-10-31T07:16:49;19.57;;;8.20;;
18435;SDS011;9346;52.006;4.720;2022-10-31T07:19:17;11.33;;;7.90;;
18435;SDS011;9346;52.006;4.720;2022-10-31T07:21:44;13.60;;;8.80;;
18435;SDS011;9346;52.006;4.720;2022-10-31T07:24:10;13.53;;;9.03;;
18435;SDS011;9346;52.006;4.720;2022-10-31T07:26:38;14.87;;;8.97;;
18435;SDS011;9346;52.006;4.720;2022-10-31T07:29:08;14.57;;;8.97;;
18435;SDS011;9346;52.006;4.720;2022-10-31T07:31:36;16.03;;;8.33;;
18435;SDS011;9346;52.006;4.720;2022-10-31T07:34:03;12.67;;;8.70;;
18435;SDS011;9346;52.006;4.720;2022-10-31T07:36:30;25.40;;;9.67;;
18435;SDS011;9346;52.006;4.720;2022-10-31T07:38:57;20.73;;;9.50;;
18435;SDS011;9346;52.006;4.720;2022-10-31T07:41:27;13.30;;;8.37;;
18435;SDS011;9346;52.006;4.720;2022-10-31T07:43:54;17.33;;;10.33;;
18435;SDS011;9346;52.006;4.720;2022-10-31T07:46:23;21.90;;;11.03;;
18435;SDS011;9346;52.006;4.720;2022-10-31T07:48:50;29.73;;;10.83;;
18435;SDS011;9346;52.006;4.720;2022-10-31T07:51:17;26.20;;;11.63;;
18435;SDS011;9346;52.006;4.720;2022-10-31T07:53:44;27.57;;;12.00;;
18435;SDS011;9346;52.006;4.720;2022-10-31T07:56:11;22.13;;;11.93;;
18435;SDS011;9346;52.006;4.720;2022-10-31T07:58:41;27.63;;;12.03;;
18435;SDS011;9346;52.006;4.720;2022-10-31T08:01:09;27.67;;;12.97;;
18435;SDS011;9346;52.006;4.720;2022-10-31T08:03:38;24.03;;;12.87;;
18435;SDS011;9346;52.006;4.720;2022-10-31T08:06:06;24.37;;;13.87;;
18435;SDS011;9346;52.006;4.720;2022-10-31T08:08:33;28.90;;;13.93;;
18435;SDS011;9346;52.006;4.720;2022-10-31T08:11:00;34.57;;;13.73;;
18435;SDS011;9346;52.006;4.720;2022-10-31T08:13:27;29.70;;;13.70;;
18435;SDS011;9346;52.006;4.720;2022-10-31T08:15:54;25.80;;;11.83;;
18435;SDS011;9346;52.006;4.720;2022-10-31T08:18:28;26.43;;;12.87;;
18435;SDS011;9346;52.006;4.720;2022-10-31T08:20:57;27.07;;;14.17;;
18435;SDS011;9346;52.006;4.720;2022-10-31T08:23:24;28.93;;;12.83;;
18435;SDS011;9346;52.006;4.720;2022-10-31T08:25:51;21.03;;;12.77;;
18435;SDS011;9346;52.006;4.720;2022-10-31T08:28:18;23.67;;;13.20;;
18435;SDS011;9346;52.006;4.720;2022-10-31T08:30:45;24.33;;;13.87;;
18435;SDS011;9346;52.006;4.720;2022-10-31T08:33:14;23.67;;;13.13;;
18435;SDS011;9346;52.006;4.720;2022-10-31T08:35:43;22.30;;;13.13;;
18435;SDS011;9346;52.006;4.720;2022-10-31T08:38:12;18.43;;;12.50;;
18435;SDS011;9346;52.006;4.720;2022-10-31T08:40:39;26.70;;;13.73;;
18435;SDS011;9346;52.006;4.720;2022-10-31T08:43:10;21.97;;;13.60;;
18435;SDS011;9346;52.006;4.720;2022-10-31T08:45:40;21.53;;;13.17;;
18435;SDS011;9346;52.006;4.720;2022-10-31T08:48:09;24.60;;;13.53;;
18435;SDS011;9346;52.006;4.720;2022-10-31T08:50:37;24.47;;;13.73;;
18435;SDS011;9346;52.006;4.720;2022-10-31T08:53:05;22.13;;;13.13;;
18435;SDS011;9346;52.006;4.720;2022-10-31T08:55:35;25.13;;;14.10;;
18435;SDS011;9346;52.006;4.720;2022-10-31T08:58:03;26.40;;;14.77;;
18435;SDS011;9346;52.006;4.720;2022-10-31T09:00:32;26.93;;;14.30;;
18435;SDS011;9346;52.006;4.720;2022-10-31T09:02:59;29.73;;;16.50;;
18435;SDS011;9346;52.006;4.720;2022-10-31T09:05:27;31.77;;;14.43;;
18435;SDS011;9346;52.006;4.720;2022-10-31T09:07:55;35.03;;;18.73;;
18435;SDS011;9346;52.006;4.720;2022-10-31T09:10:23;30.47;;;16.80;;
18435;SDS011;9346;52.006;4.720;2022-10-31T09:12:55;28.27;;;18.27;;
18435;SDS011;9346;52.006;4.720;2022-10-31T09:15:24;34.27;;;18.80;;
18435;SDS011;9346;52.006;4.720;2022-10-31T09:17:51;31.40;;;17.20;;
18435;SDS011;9346;52.006;4.720;2022-10-31T09:20:19;34.70;;;18.60;;
18435;SDS011;9346;52.006;4.720;2022-10-31T09:22:46;40.17;;;19.13;;
18435;SDS011;9346;52.006;4.720;2022-10-31T09:25:13;33.80;;;20.77;;
18435;SDS011;9346;52.006;4.720;2022-10-31T09:27:40;35.30;;;19.70;;
18435;SDS011;9346;52.006;4.720;2022-10-31T09:30:10;33.60;;;18.90;;
18435;SDS011;9346;52.006;4.720;2022-10-31T09:32:38;37.33;;;19.37;;
18435;SDS011;9346;52.006;4.720;2022-10-31T09:35:05;33.70;;;19.17;;
18435;SDS011;9346;52.006;4.720;2022-10-31T09:37:33;45.30;;;19.67;;
18435;SDS011;9346;52.006;4.720;2022-10-31T09:40:00;29.13;;;18.43;;
18435;SDS011;9346;52.006;4.720;2022-10-31T09:42:32;34.50;;;19.17;;
18435;SDS011;9346;52.006;4.720;2022-10-31T09:45:11;31.40;;;17.87;;
18435;SDS011;9346;52.006;4.720;2022-10-31T09:47:48;36.03;;;19.43;;
18435;SDS011;9346;52.006;4.720;2022-10-31T09:50:24;35.73;;;19.33;;
18435;SDS011;9346;52.006;4.720;2022-10-31T09:52:57;33.70;;;18.20;;
18435;SDS011;9346;52.006;4.720;2022-10-31T09:55:30;36.93;;;19.93;;
18435;SDS011;9346;52.006;4.720;2022-10-31T09:58:02;38.27;;;20.43;;
18435;SDS011;9346;52.006;4.720;2022-10-31T10:00:32;35.40;;;20.00;;
18435;SDS011;9346;52.006;4.720;2022-10-31T10:03:00;36.33;;;18.63;;
18435;SDS011;9346;52.006;4.720;2022-10-31T10:05:36;35.10;;;18.93;;
18435;SDS011;9346;52.006;4.720;2022-10-31T10:08:08;31.57;;;19.37;;
18435;SDS011;9346;52.006;4.720;2022-10-31T10:10:43;38.93;;;19.20;;
18435;SDS011;9346;52.006;4.720;2022-10-31T10:13:21;38.87;;;21.07;;
18435;SDS011;9346;52.006;4.720;2022-10-31T10:16:06;43.77;;;20.70;;
18435;SDS011;9346;52.006;4.720;2022-10-31T10:18:42;37.37;;;20.20;;
18435;SDS011;9346;52.006;4.720;2022-10-31T10:21:19;34.43;;;18.20;;
18435;SDS011;9346;52.006;4.720;2022-10-31T10:23:57;33.53;;;19.27;;
18435;SDS011;9346;52.006;4.720;2022-10-31T10:26:35;50.37;;;21.23;;
18435;SDS011;9346;52.006;4.720;2022-10-31T10:29:09;37.80;;;20.70;;
18435;SDS011;9346;52.006;4.720;2022-10-31T10:31:49;35.53;;;18.97;;
18435;SDS011;9346;52.006;4.720;2022-10-31T10:34:20;38.43;;;20.10;;
18435;SDS011;9346;52.006;4.720;2022-10-31T10:36:50;36.43;;;19.00;;
18435;SDS011;9346;52.006;4.720;2022-10-31T10:39:24;33.57;;;19.13;;
18435;SDS011;9346;52.006;4.720;2022-10-31T10:41:54;39.30;;;19.70;;
18435;SDS011;9346;52.006;4.720;2022-10-31T10:44:43;33.33;;;19.60;;
18435;SDS011;9346;52.006;4.720;2022-10-31T10:47:34;38.47;;;21.57;;
18435;SDS011;9346;52.006;4.720;2022-10-31T10:50:12;36.33;;;19.90;;
18435;SDS011;9346;52.006;4.720;2022-10-31T10:52:44;33.93;;;20.10;;
18435;SDS011;9346;52.006;4.720;2022-10-31T10:55:22;42.97;;;20.00;;
18435;SDS011;9346;52.006;4.720;2022-10-31T10:57:58;32.53;;;19.83;;
18435;SDS011;9346;52.006;4.720;2022-10-31T11:00:27;37.83;;;19.83;;
18435;SDS011;9346;52.006;4.720;2022-10-31T11:02:58;33.43;;;18.13;;
18435;SDS011;9346;52.006;4.720;2022-10-31T11:05:28;35.23;;;19.70;;
18435;SDS011;9346;52.006;4.720;2022-10-31T11:08:00;34.33;;;19.43;;
18435;SDS011;9346;52.006;4.720;2022-10-31T11:10:28;32.20;;;19.80;;
18435;SDS011;9346;52.006;4.720;2022-10-31T11:13:03;37.37;;;19.33;;
18435;SDS011;9346;52.006;4.720;2022-10-31T11:15:35;34.43;;;19.83;;
18435;SDS011;9346;52.006;4.720;2022-10-31T11:18:12;33.20;;;18.13;;
18435;SDS011;9346;52.006;4.720;2022-10-31T11:20:49;31.43;;;18.67;;
18435;SDS011;9346;52.006;4.720;2022-10-31T11:23:19;33.90;;;19.57;;
18435;SDS011;9346;52.006;4.720;2022-10-31T11:25:51;37.80;;;19.27;;
18435;SDS011;9346;52.006;4.720;2022-10-31T11:28:21;33.23;;;19.47;;
18435;SDS011;9346;52.006;4.720;2022-10-31T11:30:51;32.30;;;19.40;;
18435;SDS011;9346;52.006;4.720;2022-10-31T11:33:24;38.60;;;17.80;;
18435;SDS011;9346;52.006;4.720;2022-10-31T11:35:55;32.50;;;19.50;;
18435;SDS011;9346;52.006;4.720;2022-10-31T11:38:24;38.03;;;19.93;;
18435;SDS011;9346;52.006;4.720;2022-10-31T11:40:57;36.47;;;19.73;;
18435;SDS011;9346;52.006;4.720;2022-10-31T11:43:29;35.43;;;18.13;;
18435;SDS011;9346;52.006;4.720;2022-10-31T11:45:56;31.30;;;18.57;;
18435;SDS011;9346;52.006;4.720;2022-10-31T11:48:25;28.00;;;17.60;;
18435;SDS011;9346;52.006;4.720;2022-10-31T11:50:53;31.10;;;18.70;;
18435;SDS011;9346;52.006;4.720;2022-10-31T11:53:24;30.80;;;17.93;;
18435;SDS011;9346;52.006;4.720;2022-10-31T11:56:00;29.77;;;18.43;;
18435;SDS011;9346;52.006;4.720;2022-10-31T11:58:33;26.47;;;17.37;;
18435;SDS011;9346;52.006;4.720;2022-10-31T12:01:00;28.63;;;18.43;;
18435;SDS011;9346;52.006;4.720;2022-10-31T12:03:44;26.47;;;17.23;;
18435;SDS011;9346;52.006;4.720;2022-10-31T12:06:18;29.37;;;16.33;;
18435;SDS011;9346;52.006;4.720;2022-10-31T12:08:48;31.47;;;16.53;;
18435;SDS011;9346;52.006;4.720;2022-10-31T12:11:20;30.97;;;16.37;;
18435;SDS011;9346;52.006;4.720;2022-10-31T12:14:02;28.17;;;16.00;;
18435;SDS011;9346;52.006;4.720;2022-10-31T12:16:44;31.17;;;17.23;;
18435;SDS011;9346;52.006;4.720;2022-10-31T12:19:20;28.40;;;17.23;;
18435;SDS011;9346;52.006;4.720;2022-10-31T12:22:02;28.27;;;17.17;;
18435;SDS011;9346;52.006;4.720;2022-10-31T12:24:42;27.40;;;16.80;;
18435;SDS011;9346;52.006;4.720;2022-10-31T12:27:19;27.47;;;15.97;;
18435;SDS011;9346;52.006;4.720;2022-10-31T12:30:02;27.47;;;15.97;;
18435;SDS011;9346;52.006;4.720;2022-10-31T12:32:50;26.40;;;17.27;;
18435;SDS011;9346;52.006;4.720;2022-10-31T12:35:29;38.90;;;17.23;;
18435;SDS011;9346;52.006;4.720;2022-10-31T12:38:06;28.57;;;17.10;;
18435;SDS011;9346;52.006;4.720;2022-10-31T12:40:50;39.03;;;17.67;;
18435;SDS011;9346;52.006;4.720;2022-10-31T12:43:29;34.47;;;18.10;;
18435;SDS011;9346;52.006;4.720;2022-10-31T12:46:04;30.60;;;18.00;;
18435;SDS011;9346;52.006;4.720;2022-10-31T12:51:36;32.20;;;17.00;;
18435;SDS011;9346;52.006;4.720;2022-10-31T12:54:21;36.33;;;17.53;;
18435;SDS011;9346;52.006;4.720;2022-10-31T12:57:06;41.73;;;19.90;;
18435;SDS011;9346;52.006;4.720;2022-10-31T12:59:42;32.20;;;18.90;;
18435;SDS011;9346;52.006;4.720;2022-10-31T13:02:15;33.70;;;18.63;;
18435;SDS011;9346;52.006;4.720;2022-10-31T13:04:46;30.83;;;17.27;;
18435;SDS011;9346;52.006;4.720;2022-10-31T13:07:19;28.47;;;16.87;;
18435;SDS011;9346;52.006;4.720;2022-10-31T13:09:52;36.27;;;17.20;;
18435;SDS011;9346;52.006;4.720;2022-10-31T13:12:27;27.07;;;15.63;;
18435;SDS011;9346;52.006;4.720;2022-10-31T13:14:57;29.30;;;16.20;;
18435;SDS011;9346;52.006;4.720;2022-10-31T13:17:30;28.53;;;16.43;;
18435;SDS011;9346;52.006;4.720;2022-10-31T13:20:11;27.47;;;16.10;;
18435;SDS011;9346;52.006;4.720;2022-10-31T13:22:46;29.47;;;16.53;;
18435;SDS011;9346;52.006;4.720;2022-10-31T13:25:16;28.53;;;14.70;;
18435;SDS011;9346;52.006;4.720;2022-10-31T13:27:50;31.67;;;17.17;;
18435;SDS011;9346;52.006;4.720;2022-10-31T13:30:21;30.13;;;17.90;;
18435;SDS011;9346;52.006;4.720;2022-10-31T13:32:50;25.47;;;17.00;;
18435;SDS011;9346;52.006;4.720;2022-10-31T13:35:22;27.90;;;17.20;;
18435;SDS011;9346;52.006;4.720;2022-10-31T13:38:02;23.63;;;15.20;;
18435;SDS011;9346;52.006;4.720;2022-10-31T13:40:38;32.83;;;17.50;;
18435;SDS011;9346;52.006;4.720;2022-10-31T13:43:13;32.60;;;17.67;;
18435;SDS011;9346;52.006;4.720;2022-10-31T13:45:50;31.27;;;17.57;;
18435;SDS011;9346;52.006;4.720;2022-10-31T13:48:19;28.77;;;16.90;;
18435;SDS011;9346;52.006;4.720;2022-10-31T13:51:05;27.77;;;16.27;;
18435;SDS011;9346;52.006;4.720;2022-10-31T13:53:45;34.00;;;17.93;;
18435;SDS011;9346;52.006;4.720;2022-10-31T13:56:24;27.33;;;16.33;;
18435;SDS011;9346;52.006;4.720;2022-10-31T13:59:04;29.20;;;16.50;;
18435;SDS011;9346;52.006;4.720;2022-10-31T14:01:51;33.50;;;17.80;;
18435;SDS011;9346;52.006;4.720;2022-10-31T14:04:26;31.50;;;16.93;;
18435;SDS011;9346;52.006;4.720;2022-10-31T14:07:05;29.40;;;16.07;;
18435;SDS011;9346;52.006;4.720;2022-10-31T14:09:36;26.33;;;15.67;;
18435;SDS011;9346;52.006;4.720;2022-10-31T14:12:07;25.93;;;15.60;;
18435;SDS011;9346;52.006;4.720;2022-10-31T14:14:42;31.80;;;17.77;;
18435;SDS011;9346;52.006;4.720;2022-10-31T14:17:23;28.03;;;16.47;;
18435;SDS011;9346;52.006;4.720;2022-10-31T14:20:02;29.43;;;18.10;;
18435;SDS011;9346;52.006;4.720;2022-10-31T14:22:51;27.27;;;16.50;;
18435;SDS011;9346;52.006;4.720;2022-10-31T14:25:26;26.23;;;16.03;;
18435;SDS011;9346;52.006;4.720;2022-10-31T14:27:56;30.70;;;18.10;;
18435;SDS011;9346;52.006;4.720;2022-10-31T14:30:25;32.50;;;17.87;;
18435;SDS011;9346;52.006;4.720;2022-10-31T14:32:54;26.90;;;16.17;;
18435;SDS011;9346;52.006;4.720;2022-10-31T14:35:26;29.40;;;17.83;;
18435;SDS011;9346;52.006;4.720;2022-10-31T14:41:07;27.80;;;16.73;;
18435;SDS011;9346;52.006;4.720;2022-10-31T14:46:57;27.37;;;16.43;;
18435;SDS011;9346;52.006;4.720;2022-10-31T14:49:39;28.07;;;16.50;;
18435;SDS011;9346;52.006;4.720;2022-10-31T14:52:18;26.40;;;15.03;;
18435;SDS011;9346;52.006;4.720;2022-10-31T14:54:48;26.67;;;15.20;;
18435;SDS011;9346;52.006;4.720;2022-10-31T14:57:20;29.03;;;15.47;;
18435;SDS011;9346;52.006;4.720;2022-10-31T14:59:50;25.83;;;16.30;;
18435;SDS011;9346;52.006;4.720;2022-10-31T15:02:25;23.13;;;14.10;;
18435;SDS011;9346;52.006;4.720;2022-10-31T15:04:57;25.93;;;15.73;;
18435;SDS011;9346;52.006;4.720;2022-10-31T15:07:25;26.87;;;16.13;;
18435;SDS011;9346;52.006;4.720;2022-10-31T15:09:57;27.10;;;15.83;;
18435;SDS011;9346;52.006;4.720;2022-10-31T15:12:28;25.87;;;15.13;;
18435;SDS011;9346;52.006;4.720;2022-10-31T15:14:56;25.43;;;14.80;;